Strona główna
METAR-TAF:

METAR-TAF

Lotnisko :

Port lotniczy Teheran-Mehrabad

Teheran, Iran

Szerokość geograficzna: 35-41N, Długość geograficzna: 051-21E, wysokość: 1204 m

Aktualna obserwacja pogody

Raport powstał 18 minut temu, godzina 08:30 UTC
Cisza
Temperatura 33°C
Wilgotność 9%
Ciśnienie 1019 hPa
Widzialność 10 km lub więcej
Mało chmury na wysokości 4000 ft

METAR: OIII 280830Z 00000KT 9999 FEW040 33/M04 Q1018 A3009

czas: 13:18 (08:48 UTC)

Prognoza

Raport powstał 3 godziny i 18 minut temu, godzina 05:30 UTC
Prognoza ważna od 28 godzina 06 UTC do 29 godzina 12 UTC
Wiatr 8 kt od południe
Widzialność: 8000 m
Mało chmury na wysokości 4000 ft
Rozproszone chmury na wysokości 10000 ft
Przejściowo
od 28 godzina 10 UTC do 28 godzina 16 UTC
Mało chmury na wysokości 3500 ft, Cumulonimbus.
Rozproszone chmury na wysokości 4000 ft
Rozproszone chmury na wysokości 10000 ft

TAF: OIII 280530Z 2806/2912 18008KT 8000 FEW040 SCT100 TEMPO 2810/2816 FEW035CB SCT040 SCT100

Obserwacja i prognoza pogody dla ponad 4000 lotnisk (raport METAR i TAF).

Dostępne stacje oznaczono żółtymi i czerwonymi punktami na mapie.

Najedź kursorem aby zobaczyć nazwę stacji.

Kliknij aby zobaczyć obserwacje i prognozy pogody.

Aby zmienić mapę: kliknij na zielony przycisk z czarnym krzyżykiem, aby powiększyć; na zielony przycisk z myślnikiem, aby pomniejszyć; na zielone strzałki, aby przejść do map sąsiednich.


METAR-TAF: